Siteam Discoverer — ZCEP4 — position and weather

sailwx.info

Track history (hours):
 
Tides and Currents Weather Stations Pressure Air Temp Water Temp Dewpoint Dewpoint Depression Visibility Wind Speed Wind Dir Waves Ship Positions

Siteam Discoverer

Last reported at 2018-May-23 07:34 UTC. Time now 2018-Jun-23 02:55 UTC.
Position N 22°17' E 118°55'.
Warning: this ship's position is 30 days out of date.

Length 183 m; draft 7.6 m.

Type: Ship. MMSI: 310707000.

Date/timePositionNaut miles runAvg speedWind from/ knotsBaromVisibWave heightAir tempDewpointWater temp
2018-May-23 07:34N 22°17' E 118°55'0 1.3
2018-May-23 07:23N 22°17' E 118°54'1 1.3
2018-May-23 06:59N 22°17' E 118°54'1 1.2
2018-May-23 06:30N 22°16' E 118°53'1 1.2
2018-May-23 06:00N 22°16' E 118°53'1 1.3
2018-May-23 05:29N 22°16' E 118°52'1 1.3
2018-May-23 04:59N 22°15' E 118°52'1 1.3
2018-May-23 04:18N 22°14' E 118°51'1 1.2
2018-May-23 03:06N 22°13' E 118°51'51 3.1
2018-May-22 10:34N 22°17' E 119°46'111.2
2018-May-22 10:30N 22°17' E 119°46'510.4
2018-May-22 09:59N 22°22' E 119°50'510.7
2018-May-22 09:30N 22°26' E 119°54'610.7
2018-May-22 08:58N 22°30' E 119°57'511.2
2018-May-22 08:30N 22°32' E 120°03'612.2
2018-May-22 08:01N 22°36' E 120°08'611.4
2018-May-22 07:30N 22°38' E 120°14'4 7.7
2018-May-22 07:01N 22°36' E 120°18'1 1.0
2018-May-22 06:30N 22°36' E 120°18'0 0.0
2018-May-21 01:42N 22°36' E 120°18'0 0.3
2018-May-21 01:30N 22°36' E 120°18'2 4.4
2018-May-21 01:00N 22°37' E 120°16'3 6.0
2018-May-21 00:30N 22°37' E 120°12'3 5.3
2018-May-21 00:00N 22°38' E 120°10'510.1
2018-May-20 23:30N 22°41' E 120°05'814.5
2018-May-20 22:59N 22°46' E 119°59'714.5
2018-May-20 22:30N 22°50' E 119°53'  
Track history (hours):
 
Tides and Currents Weather Stations Pressure Air Temp Water Temp Dewpoint Dewpoint Depression Visibility Wind Speed Wind Dir Waves Ship Positions

Siteam Discoverer

Last reported at 2018-May-23 07:34 UTC. Time now 2018-Jun-23 02:55 UTC.
Position N 22°17' E 118°55'.
Warning: this ship's position is 30 days out of date.

Length 183 m; draft 7.6 m.

Type: Ship. MMSI: 310707000.

Date/timePositionNaut miles runAvg speedWind from/ knotsBaromVisibWave heightAir tempDewpointWater temp
2018-May-23 07:34N 22°17' E 118°55'0 1.3
2018-May-23 07:23N 22°17' E 118°54'1 1.3
2018-May-23 06:59N 22°17' E 118°54'1 1.2
2018-May-23 06:30N 22°16' E 118°53'1 1.2
2018-May-23 06:00N 22°16' E 118°53'1 1.3
2018-May-23 05:29N 22°16' E 118°52'1 1.3
2018-May-23 04:59N 22°15' E 118°52'1 1.3
2018-May-23 04:18N 22°14' E 118°51'1 1.2
2018-May-23 03:06N 22°13' E 118°51'51 3.1
2018-May-22 10:34N 22°17' E 119°46'111.2
2018-May-22 10:30N 22°17' E 119°46'510.4
2018-May-22 09:59N 22°22' E 119°50'510.7
2018-May-22 09:30N 22°26' E 119°54'610.7
2018-May-22 08:58N 22°30' E 119°57'511.2
2018-May-22 08:30N 22°32' E 120°03'612.2
2018-May-22 08:01N 22°36' E 120°08'611.4
2018-May-22 07:30N 22°38' E 120°14'4 7.7
2018-May-22 07:01N 22°36' E 120°18'1 1.0
2018-May-22 06:30N 22°36' E 120°18'0 0.0
2018-May-21 01:42N 22°36' E 120°18'0 0.3
2018-May-21 01:30N 22°36' E 120°18'2 4.4
2018-May-21 01:00N 22°37' E 120°16'3 6.0
2018-May-21 00:30N 22°37' E 120°12'3 5.3
2018-May-21 00:00N 22°38' E 120°10'510.1
2018-May-20 23:30N 22°41' E 120°05'814.5
2018-May-20 22:59N 22°46' E 119°59'714.5
2018-May-20 22:30N 22°50' E 119°53'  

Dump ship's entire track history